sensor_id;sensor_type;location;lat;lon;timestamp;P1;durP1;ratioP1;P2;durP2;ratioP2
67372;SDS011;54257;54.496;18.412;2022-08-14T00:01:06;6.00;;;3.20;;
67372;SDS011;54257;54.496;18.412;2022-08-14T00:03:33;6.00;;;3.00;;
67372;SDS011;54257;54.496;18.412;2022-08-14T00:06:01;5.10;;;2.90;;
67372;SDS011;54257;54.496;18.412;2022-08-14T00:08:29;3.40;;;2.60;;
67372;SDS011;54257;54.496;18.412;2022-08-14T00:10:57;4.00;;;2.90;;
67372;SDS011;54257;54.496;18.412;2022-08-14T00:13:25;5.30;;;3.20;;
67372;SDS011;54257;54.496;18.412;2022-08-14T00:15:57;6.70;;;3.20;;
67372;SDS011;54257;54.496;18.412;2022-08-14T00:18:25;6.60;;;2.90;;
67372;SDS011;54257;54.496;18.412;2022-08-14T00:20:54;5.50;;;3.20;;
67372;SDS011;54257;54.496;18.412;2022-08-14T00:23:22;6.10;;;3.20;;
67372;SDS011;54257;54.496;18.412;2022-08-14T00:25:52;7.00;;;3.60;;
67372;SDS011;54257;54.496;18.412;2022-08-14T00:28:21;5.70;;;3.10;;
67372;SDS011;54257;54.496;18.412;2022-08-14T00:30:53;4.80;;;3.00;;
67372;SDS011;54257;54.496;18.412;2022-08-14T00:33:23;5.60;;;3.20;;
67372;SDS011;54257;54.496;18.412;2022-08-14T00:35:52;3.60;;;3.10;;
67372;SDS011;54257;54.496;18.412;2022-08-14T00:38:19;5.50;;;3.00;;
67372;SDS011;54257;54.496;18.412;2022-08-14T00:40:47;5.00;;;2.90;;
67372;SDS011;54257;54.496;18.412;2022-08-14T00:43:15;6.10;;;3.00;;
67372;SDS011;54257;54.496;18.412;2022-08-14T00:45:42;10.10;;;3.40;;
67372;SDS011;54257;54.496;18.412;2022-08-14T00:48:10;3.50;;;3.00;;
67372;SDS011;54257;54.496;18.412;2022-08-14T00:50:37;4.40;;;2.90;;
67372;SDS011;54257;54.496;18.412;2022-08-14T00:53:05;5.30;;;3.20;;
67372;SDS011;54257;54.496;18.412;2022-08-14T00:55:34;5.00;;;3.10;;
67372;SDS011;54257;54.496;18.412;2022-08-14T00:58:02;6.90;;;3.00;;
67372;SDS011;54257;54.496;18.412;2022-08-14T01:00:49;5.00;;;3.20;;
67372;SDS011;54257;54.496;18.412;2022-08-14T01:03:16;5.30;;;3.00;;
67372;SDS011;54257;54.496;18.412;2022-08-14T01:05:45;6.10;;;3.00;;
67372;SDS011;54257;54.496;18.412;2022-08-14T01:08:17;5.50;;;3.60;;
67372;SDS011;54257;54.496;18.412;2022-08-14T01:10:49;5.90;;;3.00;;
67372;SDS011;54257;54.496;18.412;2022-08-14T01:13:23;5.30;;;3.00;;
67372;SDS011;54257;54.496;18.412;2022-08-14T01:15:54;4.50;;;2.50;;
67372;SDS011;54257;54.496;18.412;2022-08-14T01:18:23;5.40;;;3.10;;
67372;SDS011;54257;54.496;18.412;2022-08-14T01:21:10;3.60;;;2.20;;
67372;SDS011;54257;54.496;18.412;2022-08-14T01:23:42;4.40;;;3.00;;
67372;SDS011;54257;54.496;18.412;2022-08-14T01:26:14;5.00;;;2.50;;
67372;SDS011;54257;54.496;18.412;2022-08-14T01:28:44;5.60;;;2.70;;
67372;SDS011;54257;54.496;18.412;2022-08-14T01:31:13;3.90;;;2.70;;
67372;SDS011;54257;54.496;18.412;2022-08-14T01:33:43;4.40;;;2.70;;
67372;SDS011;54257;54.496;18.412;2022-08-14T01:36:14;2.80;;;2.20;;
67372;SDS011;54257;54.496;18.412;2022-08-14T01:38:43;5.90;;;2.70;;
67372;SDS011;54257;54.496;18.412;2022-08-14T01:41:12;4.80;;;2.90;;
67372;SDS011;54257;54.496;18.412;2022-08-14T01:43:48;6.30;;;2.60;;
67372;SDS011;54257;54.496;18.412;2022-08-14T01:46:19;3.30;;;2.60;;
67372;SDS011;54257;54.496;18.412;2022-08-14T01:48:48;3.60;;;2.50;;
67372;SDS011;54257;54.496;18.412;2022-08-14T01:51:18;4.50;;;3.00;;
67372;SDS011;54257;54.496;18.412;2022-08-14T01:53:52;3.70;;;2.70;;
67372;SDS011;54257;54.496;18.412;2022-08-14T01:56:24;3.50;;;2.30;;
67372;SDS011;54257;54.496;18.412;2022-08-14T01:59:09;3.50;;;2.70;;
67372;SDS011;54257;54.496;18.412;2022-08-14T02:01:45;4.70;;;2.70;;
67372;SDS011;54257;54.496;18.412;2022-08-14T02:04:17;6.60;;;2.70;;
67372;SDS011;54257;54.496;18.412;2022-08-14T02:06:46;4.80;;;2.40;;
67372;SDS011;54257;54.496;18.412;2022-08-14T02:09:16;4.10;;;2.60;;
67372;SDS011;54257;54.496;18.412;2022-08-14T02:11:46;3.50;;;2.50;;
67372;SDS011;54257;54.496;18.412;2022-08-14T02:14:13;6.70;;;3.10;;
67372;SDS011;54257;54.496;18.412;2022-08-14T02:16:42;5.10;;;2.40;;
67372;SDS011;54257;54.496;18.412;2022-08-14T02:19:12;4.20;;;2.60;;
67372;SDS011;54257;54.496;18.412;2022-08-14T02:21:42;4.80;;;3.00;;
67372;SDS011;54257;54.496;18.412;2022-08-14T02:24:11;4.50;;;2.60;;
67372;SDS011;54257;54.496;18.412;2022-08-14T02:26:39;6.30;;;2.70;;
67372;SDS011;54257;54.496;18.412;2022-08-14T02:29:12;7.70;;;3.10;;
67372;SDS011;54257;54.496;18.412;2022-08-14T02:31:42;4.40;;;2.70;;
67372;SDS011;54257;54.496;18.412;2022-08-14T02:34:17;6.40;;;3.00;;
67372;SDS011;54257;54.496;18.412;2022-08-14T02:36:48;6.00;;;2.90;;
67372;SDS011;54257;54.496;18.412;2022-08-14T02:39:18;6.90;;;2.90;;
67372;SDS011;54257;54.496;18.412;2022-08-14T02:41:45;6.10;;;3.10;;
67372;SDS011;54257;54.496;18.412;2022-08-14T02:44:16;4.80;;;2.80;;
67372;SDS011;54257;54.496;18.412;2022-08-14T02:46:46;6.20;;;3.40;;
67372;SDS011;54257;54.496;18.412;2022-08-14T02:49:15;4.70;;;2.80;;
67372;SDS011;54257;54.496;18.412;2022-08-14T02:51:46;6.00;;;3.00;;
67372;SDS011;54257;54.496;18.412;2022-08-14T02:54:14;5.40;;;3.50;;
67372;SDS011;54257;54.496;18.412;2022-08-14T02:56:42;6.00;;;3.20;;
67372;SDS011;54257;54.496;18.412;2022-08-14T02:59:09;5.80;;;3.40;;
67372;SDS011;54257;54.496;18.412;2022-08-14T03:01:39;4.40;;;3.20;;
67372;SDS011;54257;54.496;18.412;2022-08-14T03:04:06;7.10;;;2.90;;
67372;SDS011;54257;54.496;18.412;2022-08-14T03:06:36;4.30;;;2.80;;
67372;SDS011;54257;54.496;18.412;2022-08-14T03:09:03;5.90;;;2.80;;
67372;SDS011;54257;54.496;18.412;2022-08-14T03:11:31;3.40;;;3.00;;
67372;SDS011;54257;54.496;18.412;2022-08-14T03:13:58;3.80;;;2.70;;
67372;SDS011;54257;54.496;18.412;2022-08-14T03:16:26;3.50;;;2.60;;
67372;SDS011;54257;54.496;18.412;2022-08-14T03:18:54;6.20;;;2.90;;
67372;SDS011;54257;54.496;18.412;2022-08-14T03:21:24;8.00;;;3.60;;
67372;SDS011;54257;54.496;18.412;2022-08-14T03:23:51;9.10;;;3.20;;
67372;SDS011;54257;54.496;18.412;2022-08-14T03:26:35;6.90;;;2.70;;
67372;SDS011;54257;54.496;18.412;2022-08-14T03:29:10;6.40;;;3.20;;
67372;SDS011;54257;54.496;18.412;2022-08-14T03:31:39;4.30;;;2.40;;
67372;SDS011;54257;54.496;18.412;2022-08-14T03:34:07;3.80;;;2.90;;
67372;SDS011;54257;54.496;18.412;2022-08-14T03:36:36;6.20;;;2.70;;
67372;SDS011;54257;54.496;18.412;2022-08-14T03:39:06;4.00;;;2.70;;
67372;SDS011;54257;54.496;18.412;2022-08-14T03:41:34;5.50;;;2.60;;
67372;SDS011;54257;54.496;18.412;2022-08-14T03:44:03;5.50;;;2.60;;
67372;SDS011;54257;54.496;18.412;2022-08-14T03:46:35;5.80;;;2.90;;
67372;SDS011;54257;54.496;18.412;2022-08-14T03:49:04;4.20;;;2.60;;
67372;SDS011;54257;54.496;18.412;2022-08-14T03:51:32;7.00;;;2.80;;
67372;SDS011;54257;54.496;18.412;2022-08-14T03:54:02;6.10;;;3.50;;
67372;SDS011;54257;54.496;18.412;2022-08-14T03:56:33;5.30;;;3.40;;
67372;SDS011;54257;54.496;18.412;2022-08-14T03:59:06;6.30;;;3.10;;
67372;SDS011;54257;54.496;18.412;2022-08-14T04:01:37;4.80;;;2.70;;
67372;SDS011;54257;54.496;18.412;2022-08-14T04:04:05;5.20;;;3.00;;
67372;SDS011;54257;54.496;18.412;2022-08-14T04:06:34;3.90;;;2.40;;
67372;SDS011;54257;54.496;18.412;2022-08-14T04:09:04;5.00;;;2.80;;
67372;SDS011;54257;54.496;18.412;2022-08-14T04:11:33;5.00;;;3.40;;
67372;SDS011;54257;54.496;18.412;2022-08-14T04:14:02;8.90;;;3.20;;
67372;SDS011;54257;54.496;18.412;2022-08-14T04:16:30;5.90;;;2.60;;
67372;SDS011;54257;54.496;18.412;2022-08-14T04:18:58;3.50;;;3.10;;
67372;SDS011;54257;54.496;18.412;2022-08-14T04:21:27;6.10;;;3.60;;
67372;SDS011;54257;54.496;18.412;2022-08-14T04:23:58;4.70;;;3.20;;
67372;SDS011;54257;54.496;18.412;2022-08-14T04:26:28;5.60;;;3.20;;
67372;SDS011;54257;54.496;18.412;2022-08-14T04:28:56;3.90;;;3.30;;
67372;SDS011;54257;54.496;18.412;2022-08-14T04:31:23;6.10;;;3.30;;
67372;SDS011;54257;54.496;18.412;2022-08-14T04:33:51;4.00;;;2.90;;
67372;SDS011;54257;54.496;18.412;2022-08-14T04:36:19;4.70;;;3.60;;
67372;SDS011;54257;54.496;18.412;2022-08-14T04:38:46;3.80;;;3.00;;
67372;SDS011;54257;54.496;18.412;2022-08-14T04:41:32;4.90;;;3.30;;
67372;SDS011;54257;54.496;18.412;2022-08-14T04:44:17;6.40;;;4.60;;
67372;SDS011;54257;54.496;18.412;2022-08-14T04:46:45;7.70;;;3.70;;
67372;SDS011;54257;54.496;18.412;2022-08-14T04:49:32;6.80;;;4.40;;
67372;SDS011;54257;54.496;18.412;2022-08-14T04:51:59;6.60;;;4.10;;
67372;SDS011;54257;54.496;18.412;2022-08-14T04:54:26;11.30;;;4.20;;
67372;SDS011;54257;54.496;18.412;2022-08-14T04:56:53;8.70;;;4.70;;
67372;SDS011;54257;54.496;18.412;2022-08-14T04:59:22;8.30;;;4.60;;
67372;SDS011;54257;54.496;18.412;2022-08-14T05:01:49;10.20;;;4.50;;
67372;SDS011;54257;54.496;18.412;2022-08-14T05:04:21;8.50;;;4.60;;
67372;SDS011;54257;54.496;18.412;2022-08-14T05:06:49;6.60;;;4.40;;
67372;SDS011;54257;54.496;18.412;2022-08-14T05:09:20;7.50;;;4.30;;
67372;SDS011;54257;54.496;18.412;2022-08-14T05:11:48;7.30;;;4.60;;
67372;SDS011;54257;54.496;18.412;2022-08-14T05:14:16;7.60;;;4.70;;
67372;SDS011;54257;54.496;18.412;2022-08-14T05:16:44;10.50;;;4.80;;
67372;SDS011;54257;54.496;18.412;2022-08-14T05:19:11;9.50;;;5.30;;
67372;SDS011;54257;54.496;18.412;2022-08-14T05:21:40;7.60;;;4.50;;
67372;SDS011;54257;54.496;18.412;2022-08-14T05:24:07;7.20;;;4.60;;
67372;SDS011;54257;54.496;18.412;2022-08-14T05:26:37;7.80;;;4.50;;
67372;SDS011;54257;54.496;18.412;2022-08-14T05:29:10;7.60;;;4.90;;
67372;SDS011;54257;54.496;18.412;2022-08-14T05:31:37;8.30;;;4.40;;
67372;SDS011;54257;54.496;18.412;2022-08-14T05:34:07;12.40;;;4.40;;
67372;SDS011;54257;54.496;18.412;2022-08-14T05:36:36;7.50;;;4.10;;
67372;SDS011;54257;54.496;18.412;2022-08-14T05:39:04;7.90;;;4.50;;
67372;SDS011;54257;54.496;18.412;2022-08-14T05:41:31;7.00;;;4.20;;
67372;SDS011;54257;54.496;18.412;2022-08-14T05:43:59;8.20;;;4.30;;
67372;SDS011;54257;54.496;18.412;2022-08-14T05:46:27;7.50;;;4.80;;
67372;SDS011;54257;54.496;18.412;2022-08-14T05:48:56;11.30;;;4.30;;
67372;SDS011;54257;54.496;18.412;2022-08-14T05:51:25;6.90;;;3.90;;
67372;SDS011;54257;54.496;18.412;2022-08-14T05:53:54;5.90;;;4.20;;
67372;SDS011;54257;54.496;18.412;2022-08-14T05:56:22;9.70;;;4.40;;
67372;SDS011;54257;54.496;18.412;2022-08-14T05:58:51;5.60;;;4.00;;
67372;SDS011;54257;54.496;18.412;2022-08-14T06:01:19;8.20;;;4.70;;
67372;SDS011;54257;54.496;18.412;2022-08-14T06:03:46;10.30;;;5.00;;
67372;SDS011;54257;54.496;18.412;2022-08-14T06:06:13;5.70;;;4.40;;
67372;SDS011;54257;54.496;18.412;2022-08-14T06:08:40;8.50;;;4.40;;
67372;SDS011;54257;54.496;18.412;2022-08-14T06:11:07;8.40;;;4.10;;
67372;SDS011;54257;54.496;18.412;2022-08-14T06:13:36;6.70;;;4.10;;
67372;SDS011;54257;54.496;18.412;2022-08-14T06:16:05;7.70;;;4.10;;
67372;SDS011;54257;54.496;18.412;2022-08-14T06:18:32;7.40;;;4.00;;
67372;SDS011;54257;54.496;18.412;2022-08-14T06:21:02;6.60;;;4.20;;
67372;SDS011;54257;54.496;18.412;2022-08-14T06:23:30;4.70;;;3.10;;
67372;SDS011;54257;54.496;18.412;2022-08-14T06:25:57;6.50;;;3.40;;
67372;SDS011;54257;54.496;18.412;2022-08-14T06:28:24;5.80;;;3.90;;
67372;SDS011;54257;54.496;18.412;2022-08-14T06:30:52;5.20;;;3.30;;
67372;SDS011;54257;54.496;18.412;2022-08-14T06:33:20;6.90;;;3.80;;
67372;SDS011;54257;54.496;18.412;2022-08-14T06:35:48;5.40;;;3.50;;
67372;SDS011;54257;54.496;18.412;2022-08-14T06:38:16;5.00;;;3.20;;
67372;SDS011;54257;54.496;18.412;2022-08-14T06:40:45;4.60;;;3.20;;
67372;SDS011;54257;54.496;18.412;2022-08-14T06:43:14;4.90;;;3.10;;
67372;SDS011;54257;54.496;18.412;2022-08-14T06:45:45;6.30;;;3.00;;
67372;SDS011;54257;54.496;18.412;2022-08-14T06:48:14;3.40;;;2.90;;
67372;SDS011;54257;54.496;18.412;2022-08-14T06:50:44;7.90;;;3.70;;
67372;SDS011;54257;54.496;18.412;2022-08-14T06:53:12;6.00;;;2.90;;
67372;SDS011;54257;54.496;18.412;2022-08-14T06:55:42;6.90;;;2.90;;
67372;SDS011;54257;54.496;18.412;2022-08-14T06:58:10;6.20;;;2.80;;
67372;SDS011;54257;54.496;18.412;2022-08-14T07:00:38;3.70;;;2.80;;
67372;SDS011;54257;54.496;18.412;2022-08-14T07:03:06;4.80;;;2.60;;
67372;SDS011;54257;54.496;18.412;2022-08-14T07:05:52;5.40;;;3.10;;
67372;SDS011;54257;54.496;18.412;2022-08-14T07:10:52;4.70;;;2.60;;
67372;SDS011;54257;54.496;18.412;2022-08-14T07:13:22;8.20;;;2.40;;
67372;SDS011;54257;54.496;18.412;2022-08-14T07:15:50;7.00;;;2.80;;
67372;SDS011;54257;54.496;18.412;2022-08-14T07:18:20;6.20;;;2.50;;
67372;SDS011;54257;54.496;18.412;2022-08-14T07:20:48;6.50;;;2.60;;
67372;SDS011;54257;54.496;18.412;2022-08-14T07:23:16;4.60;;;2.70;;
67372;SDS011;54257;54.496;18.412;2022-08-14T07:25:43;4.80;;;2.60;;
67372;SDS011;54257;54.496;18.412;2022-08-14T07:28:12;4.30;;;2.50;;
67372;SDS011;54257;54.496;18.412;2022-08-14T07:30:41;3.80;;;2.60;;
67372;SDS011;54257;54.496;18.412;2022-08-14T07:33:09;3.50;;;2.40;;
67372;SDS011;54257;54.496;18.412;2022-08-14T07:35:38;3.60;;;2.80;;
67372;SDS011;54257;54.496;18.412;2022-08-14T07:38:06;5.40;;;2.70;;
67372;SDS011;54257;54.496;18.412;2022-08-14T07:40:34;4.50;;;2.60;;
67372;SDS011;54257;54.496;18.412;2022-08-14T07:43:01;6.50;;;2.70;;
67372;SDS011;54257;54.496;18.412;2022-08-14T07:45:28;5.60;;;2.30;;
67372;SDS011;54257;54.496;18.412;2022-08-14T07:47:55;8.40;;;2.50;;
67372;SDS011;54257;54.496;18.412;2022-08-14T07:50:23;9.60;;;3.10;;
67372;SDS011;54257;54.496;18.412;2022-08-14T07:52:50;5.70;;;2.30;;
67372;SDS011;54257;54.496;18.412;2022-08-14T07:55:17;7.20;;;2.80;;
67372;SDS011;54257;54.496;18.412;2022-08-14T07:57:45;6.50;;;2.40;;
67372;SDS011;54257;54.496;18.412;2022-08-14T08:00:14;7.20;;;2.90;;
67372;SDS011;54257;54.496;18.412;2022-08-14T08:02:45;7.70;;;2.60;;
67372;SDS011;54257;54.496;18.412;2022-08-14T08:05:13;4.10;;;2.30;;
67372;SDS011;54257;54.496;18.412;2022-08-14T08:07:43;5.20;;;2.30;;
67372;SDS011;54257;54.496;18.412;2022-08-14T08:10:15;4.10;;;2.40;;
67372;SDS011;54257;54.496;18.412;2022-08-14T08:15:41;5.70;;;2.30;;
67372;SDS011;54257;54.496;18.412;2022-08-14T08:18:11;4.20;;;2.60;;
67372;SDS011;54257;54.496;18.412;2022-08-14T08:20:44;5.50;;;2.30;;
67372;SDS011;54257;54.496;18.412;2022-08-14T08:23:14;3.00;;;2.30;;
67372;SDS011;54257;54.496;18.412;2022-08-14T08:25:43;3.90;;;2.30;;
67372;SDS011;54257;54.496;18.412;2022-08-14T08:30:49;4.60;;;2.90;;
67372;SDS011;54257;54.496;18.412;2022-08-14T08:33:20;6.10;;;2.50;;
67372;SDS011;54257;54.496;18.412;2022-08-14T08:35:49;4.00;;;2.70;;
67372;SDS011;54257;54.496;18.412;2022-08-14T08:38:18;3.80;;;2.40;;
67372;SDS011;54257;54.496;18.412;2022-08-14T08:40:49;4.80;;;2.50;;
67372;SDS011;54257;54.496;18.412;2022-08-14T08:43:25;3.20;;;2.40;;
67372;SDS011;54257;54.496;18.412;2022-08-14T08:45:57;4.60;;;2.10;;
67372;SDS011;54257;54.496;18.412;2022-08-14T08:48:27;2.80;;;1.90;;
67372;SDS011;54257;54.496;18.412;2022-08-14T08:50:56;2.20;;;1.90;;
67372;SDS011;54257;54.496;18.412;2022-08-14T08:53:29;3.80;;;2.10;;
67372;SDS011;54257;54.496;18.412;2022-08-14T08:55:57;2.80;;;2.10;;
67372;SDS011;54257;54.496;18.412;2022-08-14T08:58:26;3.90;;;2.30;;
67372;SDS011;54257;54.496;18.412;2022-08-14T09:00:55;4.40;;;1.90;;
67372;SDS011;54257;54.496;18.412;2022-08-14T09:03:25;2.60;;;2.00;;
67372;SDS011;54257;54.496;18.412;2022-08-14T09:08:23;2.50;;;2.10;;
67372;SDS011;54257;54.496;18.412;2022-08-14T09:10:52;4.70;;;2.70;;
67372;SDS011;54257;54.496;18.412;2022-08-14T09:13:21;4.60;;;2.10;;
67372;SDS011;54257;54.496;18.412;2022-08-14T09:15:52;3.70;;;2.00;;
67372;SDS011;54257;54.496;18.412;2022-08-14T09:18:21;2.90;;;2.00;;
67372;SDS011;54257;54.496;18.412;2022-08-14T09:20:50;4.20;;;2.50;;
67372;SDS011;54257;54.496;18.412;2022-08-14T09:23:19;3.10;;;2.20;;
67372;SDS011;54257;54.496;18.412;2022-08-14T09:25:47;4.20;;;2.10;;
67372;SDS011;54257;54.496;18.412;2022-08-14T09:28:17;5.50;;;2.40;;
67372;SDS011;54257;54.496;18.412;2022-08-14T09:30:51;3.00;;;1.90;;
67372;SDS011;54257;54.496;18.412;2022-08-14T09:33:28;2.80;;;1.80;;
67372;SDS011;54257;54.496;18.412;2022-08-14T09:38:57;4.40;;;2.10;;
67372;SDS011;54257;54.496;18.412;2022-08-14T09:41:37;3.90;;;1.90;;
67372;SDS011;54257;54.496;18.412;2022-08-14T09:44:18;2.20;;;1.90;;
67372;SDS011;54257;54.496;18.412;2022-08-14T09:46:59;3.80;;;1.80;;
67372;SDS011;54257;54.496;18.412;2022-08-14T09:49:32;2.20;;;1.90;;
67372;SDS011;54257;54.496;18.412;2022-08-14T09:52:08;3.50;;;1.90;;
67372;SDS011;54257;54.496;18.412;2022-08-14T09:54:46;3.90;;;1.80;;
67372;SDS011;54257;54.496;18.412;2022-08-14T09:57:24;2.90;;;2.00;;
67372;SDS011;54257;54.496;18.412;2022-08-14T09:59:53;2.70;;;1.90;;
67372;SDS011;54257;54.496;18.412;2022-08-14T10:02:24;4.20;;;2.10;;
67372;SDS011;54257;54.496;18.412;2022-08-14T10:05:04;6.40;;;2.40;;
67372;SDS011;54257;54.496;18.412;2022-08-14T10:07:36;2.70;;;1.90;;
67372;SDS011;54257;54.496;18.412;2022-08-14T10:12:57;3.00;;;1.90;;
67372;SDS011;54257;54.496;18.412;2022-08-14T10:15:27;3.00;;;2.10;;
67372;SDS011;54257;54.496;18.412;2022-08-14T10:18:10;2.00;;;1.90;;
67372;SDS011;54257;54.496;18.412;2022-08-14T10:20:56;3.50;;;2.00;;
67372;SDS011;54257;54.496;18.412;2022-08-14T10:23:27;2.00;;;1.80;;
67372;SDS011;54257;54.496;18.412;2022-08-14T10:26:05;1.90;;;1.70;;
67372;SDS011;54257;54.496;18.412;2022-08-14T10:28:47;6.40;;;1.90;;
67372;SDS011;54257;54.496;18.412;2022-08-14T10:31:23;2.30;;;2.10;;
67372;SDS011;54257;54.496;18.412;2022-08-14T10:36:30;4.00;;;1.90;;
67372;SDS011;54257;54.496;18.412;2022-08-14T10:39:19;4.60;;;2.10;;
67372;SDS011;54257;54.496;18.412;2022-08-14T10:41:58;3.00;;;2.20;;
67372;SDS011;54257;54.496;18.412;2022-08-14T10:44:34;3.30;;;2.10;;
67372;SDS011;54257;54.496;18.412;2022-08-14T10:47:05;5.20;;;2.20;;
67372;SDS011;54257;54.496;18.412;2022-08-14T10:49:36;3.70;;;2.30;;
67372;SDS011;54257;54.496;18.412;2022-08-14T10:54:37;2.10;;;2.00;;
67372;SDS011;54257;54.496;18.412;2022-08-14T10:57:23;2.40;;;2.10;;
67372;SDS011;54257;54.496;18.412;2022-08-14T11:00:12;4.10;;;2.40;;
67372;SDS011;54257;54.496;18.412;2022-08-14T11:02:41;2.70;;;2.00;;
67372;SDS011;54257;54.496;18.412;2022-08-14T11:07:39;2.50;;;2.00;;
67372;SDS011;54257;54.496;18.412;2022-08-14T11:10:21;6.30;;;2.50;;
67372;SDS011;54257;54.496;18.412;2022-08-14T11:12:52;5.60;;;2.50;;
67372;SDS011;54257;54.496;18.412;2022-08-14T11:15:24;4.40;;;2.30;;
67372;SDS011;54257;54.496;18.412;2022-08-14T11:17:54;2.70;;;1.90;;
67372;SDS011;54257;54.496;18.412;2022-08-14T11:20:23;3.00;;;2.40;;
67372;SDS011;54257;54.496;18.412;2022-08-14T11:22:54;5.90;;;2.50;;
67372;SDS011;54257;54.496;18.412;2022-08-14T11:25:25;4.60;;;2.30;;
67372;SDS011;54257;54.496;18.412;2022-08-14T11:27:57;3.20;;;2.50;;
67372;SDS011;54257;54.496;18.412;2022-08-14T11:30:27;2.90;;;2.30;;
67372;SDS011;54257;54.496;18.412;2022-08-14T11:32:56;4.30;;;2.30;;
67372;SDS011;54257;54.496;18.412;2022-08-14T11:35:24;4.80;;;2.30;;
67372;SDS011;54257;54.496;18.412;2022-08-14T11:40:23;4.40;;;2.40;;
67372;SDS011;54257;54.496;18.412;2022-08-14T11:42:53;4.20;;;2.60;;
67372;SDS011;54257;54.496;18.412;2022-08-14T11:45:25;3.20;;;2.40;;
67372;SDS011;54257;54.496;18.412;2022-08-14T11:50:23;3.20;;;2.50;;
67372;SDS011;54257;54.496;18.412;2022-08-14T11:52:54;3.20;;;2.40;;
67372;SDS011;54257;54.496;18.412;2022-08-14T11:55:23;2.80;;;2.40;;
67372;SDS011;54257;54.496;18.412;2022-08-14T11:57:59;6.70;;;2.80;;
67372;SDS011;54257;54.496;18.412;2022-08-14T12:00:31;2.80;;;2.60;;
67372;SDS011;54257;54.496;18.412;2022-08-14T12:02:59;5.50;;;2.50;;
67372;SDS011;54257;54.496;18.412;2022-08-14T12:05:32;5.40;;;2.40;;
67372;SDS011;54257;54.496;18.412;2022-08-14T12:08:01;4.90;;;2.30;;
67372;SDS011;54257;54.496;18.412;2022-08-14T12:10:33;3.20;;;2.60;;
67372;SDS011;54257;54.496;18.412;2022-08-14T12:15:39;5.00;;;2.70;;
67372;SDS011;54257;54.496;18.412;2022-08-14T12:18:11;2.70;;;2.30;;
67372;SDS011;54257;54.496;18.412;2022-08-14T12:20:39;8.00;;;2.60;;
67372;SDS011;54257;54.496;18.412;2022-08-14T12:23:19;4.50;;;2.50;;
67372;SDS011;54257;54.496;18.412;2022-08-14T12:25:48;5.30;;;3.40;;
67372;SDS011;54257;54.496;18.412;2022-08-14T12:28:16;4.70;;;4.20;;
67372;SDS011;54257;54.496;18.412;2022-08-14T12:30:43;4.20;;;3.30;;
67372;SDS011;54257;54.496;18.412;2022-08-14T12:33:24;5.30;;;2.90;;
67372;SDS011;54257;54.496;18.412;2022-08-14T12:35:55;3.00;;;2.70;;
67372;SDS011;54257;54.496;18.412;2022-08-14T12:38:37;2.70;;;2.50;;
67372;SDS011;54257;54.496;18.412;2022-08-14T12:41:10;3.80;;;2.70;;
67372;SDS011;54257;54.496;18.412;2022-08-14T12:43:43;5.40;;;3.50;;
67372;SDS011;54257;54.496;18.412;2022-08-14T12:46:19;4.00;;;3.70;;
67372;SDS011;54257;54.496;18.412;2022-08-14T12:49:00;6.20;;;3.30;;
67372;SDS011;54257;54.496;18.412;2022-08-14T12:51:31;9.70;;;8.70;;
67372;SDS011;54257;54.496;18.412;2022-08-14T12:53:59;6.20;;;4.50;;
67372;SDS011;54257;54.496;18.412;2022-08-14T12:56:37;6.80;;;6.00;;
67372;SDS011;54257;54.496;18.412;2022-08-14T12:59:04;11.30;;;7.80;;
67372;SDS011;54257;54.496;18.412;2022-08-14T13:01:31;3.90;;;3.40;;
67372;SDS011;54257;54.496;18.412;2022-08-14T13:04:07;4.40;;;4.00;;
67372;SDS011;54257;54.496;18.412;2022-08-14T13:06:39;4.00;;;3.70;;
67372;SDS011;54257;54.496;18.412;2022-08-14T13:09:11;4.60;;;3.90;;
67372;SDS011;54257;54.496;18.412;2022-08-14T13:11:46;3.90;;;3.60;;
67372;SDS011;54257;54.496;18.412;2022-08-14T13:14:17;4.10;;;3.00;;
67372;SDS011;54257;54.496;18.412;2022-08-14T13:16:53;6.80;;;3.40;;
67372;SDS011;54257;54.496;18.412;2022-08-14T13:19:22;4.80;;;3.30;;
67372;SDS011;54257;54.496;18.412;2022-08-14T13:21:51;3.50;;;3.00;;
67372;SDS011;54257;54.496;18.412;2022-08-14T13:24:23;4.50;;;3.30;;
67372;SDS011;54257;54.496;18.412;2022-08-14T13:26:52;4.40;;;3.30;;
67372;SDS011;54257;54.496;18.412;2022-08-14T13:29:23;5.60;;;3.20;;
67372;SDS011;54257;54.496;18.412;2022-08-14T13:31:54;4.60;;;3.70;;
67372;SDS011;54257;54.496;18.412;2022-08-14T13:34:24;8.00;;;3.50;;
67372;SDS011;54257;54.496;18.412;2022-08-14T13:36:53;4.10;;;3.40;;
67372;SDS011;54257;54.496;18.412;2022-08-14T13:39:23;5.10;;;3.90;;
67372;SDS011;54257;54.496;18.412;2022-08-14T13:41:51;5.00;;;3.40;;
67372;SDS011;54257;54.496;18.412;2022-08-14T13:44:19;6.40;;;3.90;;
67372;SDS011;54257;54.496;18.412;2022-08-14T13:46:47;5.00;;;3.60;;
67372;SDS011;54257;54.496;18.412;2022-08-14T13:49:15;7.30;;;3.80;;
67372;SDS011;54257;54.496;18.412;2022-08-14T13:51:46;7.30;;;4.10;;
67372;SDS011;54257;54.496;18.412;2022-08-14T13:54:15;6.10;;;3.50;;
67372;SDS011;54257;54.496;18.412;2022-08-14T13:56:46;4.60;;;3.80;;
67372;SDS011;54257;54.496;18.412;2022-08-14T13:59:15;9.70;;;4.20;;
67372;SDS011;54257;54.496;18.412;2022-08-14T14:01:42;5.60;;;4.10;;
67372;SDS011;54257;54.496;18.412;2022-08-14T14:04:15;8.40;;;4.30;;
67372;SDS011;54257;54.496;18.412;2022-08-14T14:06:47;6.30;;;4.30;;
67372;SDS011;54257;54.496;18.412;2022-08-14T14:09:20;4.30;;;4.00;;
67372;SDS011;54257;54.496;18.412;2022-08-14T14:11:52;5.90;;;3.80;;
67372;SDS011;54257;54.496;18.412;2022-08-14T14:14:22;7.60;;;3.40;;
67372;SDS011;54257;54.496;18.412;2022-08-14T14:16:51;4.00;;;3.60;;
67372;SDS011;54257;54.496;18.412;2022-08-14T14:19:18;7.00;;;3.80;;
67372;SDS011;54257;54.496;18.412;2022-08-14T14:21:49;4.10;;;3.70;;
67372;SDS011;54257;54.496;18.412;2022-08-14T14:24:17;5.00;;;3.90;;
67372;SDS011;54257;54.496;18.412;2022-08-14T14:26:47;6.00;;;4.00;;
67372;SDS011;54257;54.496;18.412;2022-08-14T14:29:16;5.60;;;4.00;;
67372;SDS011;54257;54.496;18.412;2022-08-14T14:31:46;4.00;;;3.50;;
67372;SDS011;54257;54.496;18.412;2022-08-14T14:34:17;5.20;;;3.50;;
67372;SDS011;54257;54.496;18.412;2022-08-14T14:36:49;4.40;;;3.70;;
67372;SDS011;54257;54.496;18.412;2022-08-14T14:39:16;5.10;;;3.80;;
67372;SDS011;54257;54.496;18.412;2022-08-14T14:41:48;3.80;;;3.50;;
67372;SDS011;54257;54.496;18.412;2022-08-14T14:44:19;7.80;;;3.70;;
67372;SDS011;54257;54.496;18.412;2022-08-14T14:46:52;4.10;;;3.70;;
67372;SDS011;54257;54.496;18.412;2022-08-14T14:49:20;6.40;;;3.70;;
67372;SDS011;54257;54.496;18.412;2022-08-14T14:51:49;4.90;;;4.00;;
67372;SDS011;54257;54.496;18.412;2022-08-14T14:54:17;5.30;;;3.60;;
67372;SDS011;54257;54.496;18.412;2022-08-14T14:56:45;5.70;;;4.10;;
67372;SDS011;54257;54.496;18.412;2022-08-14T14:59:13;4.10;;;3.60;;
67372;SDS011;54257;54.496;18.412;2022-08-14T15:01:42;4.40;;;4.00;;
67372;SDS011;54257;54.496;18.412;2022-08-14T15:06:40;6.10;;;4.00;;
67372;SDS011;54257;54.496;18.412;2022-08-14T15:09:07;6.00;;;3.70;;
67372;SDS011;54257;54.496;18.412;2022-08-14T15:11:34;6.70;;;4.20;;
67372;SDS011;54257;54.496;18.412;2022-08-14T15:14:01;5.40;;;4.20;;
67372;SDS011;54257;54.496;18.412;2022-08-14T15:16:28;10.90;;;4.80;;
67372;SDS011;54257;54.496;18.412;2022-08-14T15:18:55;8.10;;;7.20;;
67372;SDS011;54257;54.496;18.412;2022-08-14T15:21:24;9.30;;;8.50;;
67372;SDS011;54257;54.496;18.412;2022-08-14T15:23:51;6.30;;;5.70;;
67372;SDS011;54257;54.496;18.412;2022-08-14T15:26:18;12.10;;;11.10;;